Time;durP1;ratioP1;P1;durP2;ratioP2;P2;SDS_P1;SDS_P2;PMS_P1;PMS_P2;Temp;Humidity;BMP_temperature;BMP_pressure;BME280_temperature;BME280_humidity;BME280_pressure;Samples;Min_cycle;Max_cycle;Signal;HPM_P1;HPM_P2
2021/10/26 00:00:09;;;;;;;28.92;13.25;;;;;;;2.04;64.82;97821.23;1696788;83;25611;-85
2021/10/26 00:02:38;;;;;;;24.75;11.93;;;;;;;2.01;64.96;97813.53;1696910;84;26095;-85
2021/10/26 00:05:07;;;;;;;22.93;12.07;;;;;;;2.00;65.03;97813.18;1696818;83;25817;-85
2021/10/26 00:07:34;;;;;;;28.87;13.65;;;;;;;1.98;65.11;97815.15;1696939;83;25842;-85
2021/10/26 00:10:00;;;;;;;24.32;12.28;;;;;;;1.88;65.14;97809.03;1696956;84;26123;-85
2021/10/26 00:12:27;;;;;;;23.32;11.50;;;;;;;1.84;65.30;97818.30;1696917;83;25799;-85
2021/10/26 00:14:54;;;;;;;26.68;13.53;;;;;;;1.81;65.33;97813.60;1696780;83;27463;-85
2021/10/26 00:17:21;;;;;;;27.02;12.78;;;;;;;1.84;65.34;97808.98;1696781;83;25830;-85
2021/10/26 00:19:48;;;;;;;23.80;12.33;;;;;;;1.80;65.45;97806.63;1696817;83;25815;-85
2021/10/26 00:22:14;;;;;;;29.37;13.65;;;;;;;1.75;65.47;97804.89;1697066;82;26006;-85
2021/10/26 00:24:41;;;;;;;25.90;13.55;;;;;;;1.76;65.52;97802.58;1697869;83;25794;-85
2021/10/26 00:27:08;;;;;;;26.73;11.43;;;;;;;1.76;65.64;97795.92;1678234;84;27436;-85
2021/10/26 00:29:34;;;;;;;27.55;12.55;;;;;;;1.70;65.70;97804.48;1698234;83;25992;-85
2021/10/26 00:32:01;;;;;;;22.98;11.65;;;;;;;1.66;65.76;97791.14;1698341;83;25768;-86
2021/10/26 00:34:28;;;;;;;22.85;9.63;;;;;;;1.71;65.81;97803.98;1698380;83;26065;-85
2021/10/26 00:36:55;;;;;;;21.30;10.98;;;;;;;1.69;65.82;97796.14;1698373;83;25830;-85
2021/10/26 00:39:22;;;;;;;23.42;11.05;;;;;;;1.72;65.88;97797.19;1698281;83;27369;-86
2021/10/26 00:41:48;;;;;;;20.77;12.07;;;;;;;1.74;65.88;97799.22;1698148;83;25967;-86
2021/10/26 00:44:16;;;;;;;25.27;11.30;;;;;;;1.69;65.79;97800.14;1698343;83;25728;-85
2021/10/26 00:46:42;;;;;;;24.18;11.30;;;;;;;1.71;65.82;97799.99;1698249;84;26015;-85
2021/10/26 00:49:09;;;;;;;23.18;12.33;;;;;;;1.70;65.87;97797.82;1698607;83;25750;-85
2021/10/26 00:51:37;;;;;;;25.30;12.33;;;;;;;1.71;65.74;97795.52;1698371;83;27642;-85
2021/10/26 00:54:06;;;;;;;22.10;11.55;;;;;;;1.73;65.79;97792.22;1698295;83;25812;-86
2021/10/26 00:56:33;;;;;;;24.85;11.68;;;;;;;1.73;65.84;97792.22;1698372;83;25779;-85
2021/10/26 00:59:01;;;;;;;28.42;12.07;;;;;;;1.73;65.85;97785.56;1698361;84;27025;-85
2021/10/26 01:01:28;;;;;;;24.45;11.00;;;;;;;1.70;65.86;97786.34;1698428;83;25925;-86
2021/10/26 01:03:54;;;;;;;25.10;12.98;;;;;;;1.65;65.88;97782.80;1698205;84;27458;-84
2021/10/26 01:06:21;;;;;;;26.70;12.43;;;;;;;1.64;65.83;97783.78;1698277;83;25874;-84
2021/10/26 01:08:51;;;;;;;28.73;12.18;;;;;;;1.64;65.87;97777.13;1698396;83;25851;-85
2021/10/26 01:11:18;;;;;;;31.62;14.07;;;;;;;1.64;65.82;97777.63;1698238;83;26785;-85
2021/10/26 01:13:46;;;;;;;37.38;15.70;;;;;;;1.64;65.84;97773.14;1698378;83;25755;-85
2021/10/26 01:16:13;;;;;;;29.70;13.72;;;;;;;1.63;65.79;97775.45;1698376;83;28050;-85
2021/10/26 01:18:39;;;;;;;30.48;14.10;;;;;;;1.60;65.83;97774.41;1698297;83;25919;-85
2021/10/26 01:21:06;;;;;;;31.93;14.68;;;;;;;1.56;65.90;97774.38;1698396;83;25732;-85
2021/10/26 01:23:33;;;;;;;39.03;15.28;;;;;;;1.53;65.93;97770.67;1698371;83;26077;-84
2021/10/26 01:26:00;;;;;;;31.70;14.50;;;;;;;1.45;65.92;97774.04;1698083;83;25681;-85
2021/10/26 01:28:28;;;;;;;34.55;15.70;;;;;;;1.35;65.98;97775.06;1698341;84;27558;-85
2021/10/26 01:30:55;;;;;;;34.35;14.93;;;;;;;1.33;66.06;97773.87;1698110;83;25897;-85
2021/10/26 01:33:21;;;;;;;34.85;14.63;;;;;;;1.31;66.12;97775.02;1698365;83;25246;-85
2021/10/26 01:35:48;;;;;;;41.85;15.63;;;;;;;1.23;66.26;97769.08;1698482;83;26077;-84
2021/10/26 01:38:15;;;;;;;36.98;14.18;;;;;;;1.18;66.31;97775.83;1699654;83;25831;-84
2021/10/26 01:40:41;;;;;;;36.53;13.83;;;;;;;1.21;66.56;97776.88;1711300;83;27623;-84
2021/10/26 01:43:08;;;;;;;29.25;13.38;;;;;;;1.16;66.59;97776.45;1698234;83;25708;-84
2021/10/26 01:45:35;;;;;;;33.30;13.58;;;;;;;1.06;66.57;97783.13;1698299;84;25838;-84
2021/10/26 01:48:01;;;;;;;33.30;13.20;;;;;;;1.04;66.63;97783.27;1698405;83;26155;-84
2021/10/26 01:50:28;;;;;;;31.00;12.47;;;;;;;1.02;66.68;97779.91;1698430;84;25704;-84
2021/10/26 01:52:56;;;;;;;28.07;11.85;;;;;;;1.03;66.74;97781.59;1697982;83;27416;-85
2021/10/26 01:55:23;;;;;;;22.48;9.88;;;;;;;1.03;66.79;97782.91;1698197;83;25847;-84
2021/10/26 01:57:50;;;;;;;19.42;9.38;;;;;;;1.06;66.93;97791.11;1698267;83;25763;-84
2021/10/26 02:00:18;;;;;;;23.30;9.08;;;;;;;1.06;67.00;97786.62;1704775;82;26128;-85
2021/10/26 02:02:47;;;;;;;22.15;9.58;;;;;;;1.04;67.06;97774.45;1711921;82;25735;-85
2021/10/26 02:05:15;;;;;;;28.80;10.82;;;;;;;1.06;67.11;97781.31;1698371;83;27399;-84
2021/10/26 02:07:41;;;;;;;25.17;9.70;;;;;;;1.09;67.13;97775.69;1698247;83;25688;-84
2021/10/26 02:10:09;;;;;;;26.42;11.22;;;;;;;1.12;67.16;97773.23;1698250;83;25682;-85
2021/10/26 02:12:36;;;;;;;25.00;9.70;;;;;;;1.13;67.21;97770.09;1698246;83;26876;-84
2021/10/26 02:15:04;;;;;;;16.80;7.92;;;;;;;1.11;67.22;97770.72;1698349;83;25930;-84
2021/10/26 02:17:31;;;;;;;19.17;8.05;;;;;;;1.06;67.25;97770.67;1698381;84;27492;-84
2021/10/26 02:19:58;;;;;;;17.75;9.53;;;;;;;1.10;67.29;97776.52;1697954;83;25860;-84
2021/10/26 02:22:24;;;;;;;19.05;8.40;;;;;;;1.12;67.22;97768.41;1716539;82;25807;-84
2021/10/26 02:24:51;;;;;;;19.45;9.23;;;;;;;1.12;67.17;97771.91;1698366;83;25962;-85
2021/10/26 02:27:17;;;;;;;17.07;7.90;;;;;;;1.14;67.12;97777.92;1697948;83;26450;-84
2021/10/26 02:29:44;;;;;;;13.80;6.92;;;;;;;1.12;67.20;97776.38;1698259;83;28057;-84
2021/10/26 02:32:11;;;;;;;18.50;8.18;;;;;;;1.08;67.27;97774.03;1704289;81;26377;-84
2021/10/26 02:34:38;;;;;;;15.88;7.55;;;;;;;1.08;67.27;97776.70;1698276;84;26087;-85
2021/10/26 02:37:04;;;;;;;14.33;7.47;;;;;;;1.12;67.29;97775.05;1698325;83;26782;-83
2021/10/26 02:39:31;;;;;;;17.52;7.95;;;;;;;1.14;67.23;97775.27;1698464;83;25740;-84
2021/10/26 02:41:58;;;;;;;13.38;7.35;;;;;;;1.13;67.27;97776.24;1697956;84;27460;-84
2021/10/26 02:44:24;;;;;;;11.88;6.50;;;;;;;1.13;67.26;97778.06;1698177;83;26276;-84
2021/10/26 02:46:51;;;;;;;12.20;7.22;;;;;;;1.13;67.32;97774.08;1698393;83;25501;-85
2021/10/26 02:49:17;;;;;;;18.35;7.75;;;;;;;1.12;67.30;97776.38;1698352;84;26059;-84
2021/10/26 02:51:44;;;;;;;19.42;8.50;;;;;;;1.12;67.32;97771.91;1698259;83;25828;-84
2021/10/26 02:54:10;;;;;;;20.37;8.90;;;;;;;1.11;67.29;97772.89;1698048;84;28130;-83
2021/10/26 02:56:38;;;;;;;23.80;9.35;;;;;;;1.13;67.29;97776.73;1697979;84;25730;-84
2021/10/26 02:59:05;;;;;;;21.77;10.63;;;;;;;1.13;67.34;97776.24;1698167;83;25910;-84
2021/10/26 03:01:32;;;;;;;20.57;10.58;;;;;;;1.14;67.36;97777.08;1698226;83;25838;-84
2021/10/26 03:03:58;;;;;;;20.35;9.58;;;;;;;1.14;67.38;97785.06;1698381;83;25693;-84
2021/10/26 03:06:25;;;;;;;20.43;8.35;;;;;;;1.07;67.37;97780.33;1698254;83;27609;-84
2021/10/26 03:08:51;;;;;;;20.30;9.43;;;;;;;1.06;67.44;97786.62;1698083;83;25771;-84
2021/10/26 03:11:18;;;;;;;24.32;9.58;;;;;;;1.04;67.49;97787.25;1698300;83;25741;-84
2021/10/26 03:13:45;;;;;;;24.37;9.10;;;;;;;1.01;67.48;97780.88;1698319;83;26058;-85
2021/10/26 03:16:11;;;;;;;24.30;9.15;;;;;;;0.95;67.62;97782.80;1698257;83;25800;-84
2021/10/26 03:18:38;;;;;;;25.35;9.28;;;;;;;0.91;67.61;97785.38;1698253;83;27968;-83
2021/10/26 03:21:05;;;;;;;24.77;9.65;;;;;;;0.93;67.67;97779.44;1698533;83;25719;-83
2021/10/26 03:23:31;;;;;;;17.70;8.93;;;;;;;0.95;67.68;97782.80;1698508;83;25760;-84
2021/10/26 03:25:58;;;;;;;19.20;9.63;;;;;;;0.98;67.61;97778.99;1698110;83;26218;-84
2021/10/26 03:28:25;;;;;;;25.02;12.43;;;;;;;0.96;67.71;97780.98;1687761;84;25279;-84
2021/10/26 03:30:52;;;;;;;23.38;12.25;;;;;;;0.91;67.67;97781.39;1688064;84;27535;-83
2021/10/26 03:33:18;;;;;;;17.82;9.68;;;;;;;0.92;67.78;97783.08;1687986;84;25828;-84
2021/10/26 03:35:45;;;;;;;21.40;10.63;;;;;;;0.90;67.91;97779.72;1688104;84;25800;-84
2021/10/26 03:38:12;;;;;;;24.40;12.43;;;;;;;0.88;67.96;97783.00;1687987;84;26099;-85
2021/10/26 03:40:38;;;;;;;27.90;13.85;;;;;;;0.87;67.95;97782.65;1688016;84;25812;-83
2021/10/26 03:43:06;;;;;;;25.60;12.37;;;;;;;0.91;67.91;97780.56;1687959;84;27455;-84
2021/10/26 03:45:33;;;;;;;19.17;10.58;;;;;;;0.92;67.89;97776.92;1688012;84;25753;-84
2021/10/26 03:48:00;;;;;;;15.50;6.97;;;;;;;0.94;67.90;97782.94;1687957;84;27378;-84
2021/10/26 03:50:26;;;;;;;13.10;7.00;;;;;;;0.95;67.87;97783.29;1688065;84;26778;-83
2021/10/26 03:52:53;;;;;;;17.23;7.95;;;;;;;0.98;67.90;97782.49;1688044;84;25800;-83
2021/10/26 03:55:20;;;;;;;16.57;8.10;;;;;;;1.02;67.77;97789.22;1687761;84;27458;-84
2021/10/26 03:57:47;;;;;;;17.92;8.13;;;;;;;1.04;67.78;97791.24;1687833;84;25833;-83
2021/10/26 04:00:14;;;;;;;16.82;8.43;;;;;;;1.05;67.69;97796.91;1687918;84;25839;-84
2021/10/26 04:02:42;;;;;;;15.93;8.48;;;;;;;1.04;67.69;97786.41;1688097;84;26122;-83
2021/10/26 04:05:22;;;;;;;21.20;9.38;;;;;;;1.06;67.72;97786.62;1688067;84;25844;-85
2021/10/26 04:07:54;;;;;;;21.68;9.68;;;;;;;1.06;67.69;97779.14;1688079;83;27626;-84
2021/10/26 04:10:20;;;;;;;23.55;10.68;;;;;;;1.04;67.67;97785.92;1688750;83;25692;-85
2021/10/26 04:12:44;;;;;;;26.50;12.05;;;;;;;1.05;67.66;97786.77;1688482;83;25772;-84
2021/10/26 04:15:11;;;;;;;29.25;13.18;;;;;;;1.06;67.67;97779.98;1687795;84;26022;-85
2021/10/26 04:17:38;;;;;;;27.02;12.28;;;;;;;1.06;67.64;97783.97;1688148;84;25851;-83
2021/10/26 04:20:05;;;;;;;30.97;13.90;;;;;;;1.07;67.66;97780.33;1688104;84;28294;-84
2021/10/26 04:22:32;;;;;;;32.48;14.07;;;;;;;1.06;67.68;97779.98;1687894;84;26085;-83
2021/10/26 04:24:58;;;;;;;29.12;14.40;;;;;;;1.04;67.64;97779.77;1687894;84;25804;-83
2021/10/26 04:27:25;;;;;;;33.78;14.53;;;;;;;1.02;67.60;97771.94;1687819;84;25987;-83
2021/10/26 04:29:51;;;;;;;29.23;14.15;;;;;;;1.03;67.64;97773.61;1688036;84;25967;-83
2021/10/26 04:32:18;;;;;;;26.42;13.70;;;;;;;1.02;67.64;97777.25;1687729;84;27964;-83
2021/10/26 04:34:44;;;;;;;32.40;14.47;;;;;;;0.99;67.62;97776.20;1687838;84;25717;-83
2021/10/26 04:37:11;;;;;;;34.05;14.60;;;;;;;0.99;67.70;97766.89;1688019;84;25236;-83
2021/10/26 04:39:38;;;;;;;28.55;13.65;;;;;;;1.00;67.78;97762.41;1687831;84;26041;-83
2021/10/26 04:42:09;;;;;;;32.23;14.38;;;;;;;0.98;67.74;97758.57;1687850;84;25758;-83
2021/10/26 04:44:37;;;;;;;29.63;13.48;;;;;;;0.99;67.73;97768.22;1687838;84;27453;-83
2021/10/26 04:47:05;;;;;;;30.85;14.35;;;;;;;0.95;67.72;97769.52;1687930;84;25936;-85
2021/10/26 04:49:32;;;;;;;36.55;16.05;;;;;;;0.95;67.76;97776.16;1687985;84;26356;-85
2021/10/26 04:52:01;;;;;;;29.20;12.05;;;;;;;0.96;67.83;97782.31;1687857;84;26163;-82
2021/10/26 04:54:28;;;;;;;28.95;11.70;;;;;;;0.98;67.87;97789.14;1687906;84;25748;-82
2021/10/26 04:56:54;;;;;;;30.05;12.33;;;;;;;0.98;67.86;97778.99;1687804;84;27566;-83
2021/10/26 04:59:21;;;;;;;30.88;12.65;;;;;;;0.96;67.84;97785.81;1687806;84;25794;-83
2021/10/26 05:01:48;;;;;;;39.83;15.60;;;;;;;1.01;67.88;97782.22;1687940;84;25279;-82
2021/10/26 05:04:14;;;;;;;31.45;14.60;;;;;;;0.96;67.87;97784.48;1687953;84;26278;-83
2021/10/26 05:06:41;;;;;;;31.85;14.20;;;;;;;0.89;67.84;97792.66;1687958;84;26325;-83
2021/10/26 05:09:08;;;;;;;34.58;13.65;;;;;;;0.89;67.95;97792.66;1687902;84;28054;-83
2021/10/26 05:11:34;;;;;;;36.68;16.57;;;;;;;0.86;67.91;97788.10;1687734;84;25758;-83
2021/10/26 05:14:01;;;;;;;36.23;14.80;;;;;;;0.72;67.85;97793.39;1687938;84;25705;-82
2021/10/26 05:16:28;;;;;;;33.20;14.13;;;;;;;0.64;67.95;97793.23;1687792;84;25716;-83
2021/10/26 05:18:58;;;;;;;34.18;14.98;;;;;;;0.66;68.04;97796.59;1688015;84;25401;-82
2021/10/26 05:21:23;;;;;;;32.58;14.00;;;;;;;0.65;68.09;97796.23;1688126;83;28113;-83
2021/10/26 05:23:50;;;;;;;31.15;13.03;;;;;;;0.67;68.13;97799.11;1687623;84;25810;-83
2021/10/26 05:26:20;;;;;;;27.95;12.85;;;;;;;0.69;68.20;97794.50;1687933;84;25803;-82
2021/10/26 05:28:49;;;;;;;33.28;13.00;;;;;;;0.70;68.20;97791.36;1687681;84;25983;-82
2021/10/26 05:31:16;;;;;;;32.40;15.50;;;;;;;0.71;68.22;97797.86;1687995;84;25739;-82
2021/10/26 05:33:43;;;;;;;33.58;15.00;;;;;;;0.77;68.19;97801.75;1687817;84;27458;-82
2021/10/26 05:36:10;;;;;;;37.23;15.65;;;;;;;0.78;68.09;97805.25;1687835;84;25732;-82
2021/10/26 05:38:38;;;;;;;25.90;12.82;;;;;;;0.76;68.10;97808.05;1687855;84;25342;-82
2021/10/26 05:41:05;;;;;;;28.83;13.62;;;;;;;0.77;68.23;97808.89;1687866;84;26355;-81
2021/10/26 05:43:32;;;;;;;31.40;13.53;;;;;;;0.78;68.25;97806.58;1687954;84;25789;-83
2021/10/26 05:45:59;;;;;;;42.62;17.75;;;;;;;0.78;68.22;97807.91;1688024;84;27302;-84
2021/10/26 05:48:25;;;;;;;43.75;17.75;;;;;;;0.78;68.26;97800.78;1687826;84;25282;-82
2021/10/26 05:50:52;;;;;;;46.68;21.87;;;;;;;0.80;68.23;97808.13;1687848;84;25820;-83
2021/10/26 05:53:18;;;;;;;70.40;30.85;;;;;;;0.83;68.26;97804.36;1687872;84;26027;-83
2021/10/26 05:55:45;;;;;;;65.37;29.40;;;;;;;0.85;68.29;97813.00;1687897;84;25717;-83
2021/10/26 05:58:12;;;;;;;65.62;28.52;;;;;;;0.81;68.37;97813.80;1687055;84;27448;-83
2021/10/26 06:00:42;;;;;;;73.28;33.18;;;;;;;0.83;68.44;97821.14;1679721;84;25765;-84
2021/10/26 06:03:09;;;;;;;60.45;29.35;;;;;;;0.87;68.47;97821.19;1679696;84;25800;-84
2021/10/26 06:05:35;;;;;;;59.85;25.92;;;;;;;0.89;68.43;97816.58;1679789;84;26040;-84
2021/10/26 06:08:02;;;;;;;54.40;25.97;;;;;;;0.88;68.39;97825.53;1679724;84;25924;-83
2021/10/26 06:10:30;;;;;;;59.95;26.80;;;;;;;0.84;68.50;97821.49;1679710;84;28251;-82
2021/10/26 06:13:01;;;;;;;61.28;26.23;;;;;;;0.89;68.74;97818.39;1679702;85;25736;-83
2021/10/26 06:15:25;;;;;;;58.48;27.77;;;;;;;0.88;68.74;97822.87;1680129;83;25759;-84
2021/10/26 06:17:52;;;;;;;58.55;27.45;;;;;;;0.93;68.78;97828.61;1679416;84;26828;-84
2021/10/26 06:20:19;;;;;;;56.73;24.95;;;;;;;1.01;68.81;97831.39;1679662;84;26153;-82
2021/10/26 06:22:45;;;;;;;49.95;22.07;;;;;;;1.05;68.96;97835.46;1679737;84;28146;-82
2021/10/26 06:25:12;;;;;;;42.10;21.40;;;;;;;1.08;68.90;97840.50;1679637;84;25760;-84
2021/10/26 06:27:39;;;;;;;40.33;19.00;;;;;;;1.14;69.00;97844.89;1665967;83;25764;-84
2021/10/26 06:30:06;;;;;;;40.55;20.02;;;;;;;1.18;69.03;97844.47;1679394;84;25961;-83
2021/10/26 06:32:33;;;;;;;40.50;20.85;;;;;;;1.23;69.02;97850.67;1685371;84;25783;-83
2021/10/26 06:35:00;;;;;;;40.73;21.12;;;;;;;1.29;69.04;97848.80;1687809;84;27435;-84
2021/10/26 06:37:27;;;;;;;39.63;20.25;;;;;;;1.34;69.18;97848.69;1687759;84;25909;-84
2021/10/26 06:39:56;;;;;;;44.15;21.17;;;;;;;1.40;69.13;97846.81;1687797;84;25820;-83
2021/10/26 06:42:22;;;;;;;47.05;21.77;;;;;;;1.48;69.25;97839.91;1687855;83;26024;-84
2021/10/26 06:44:49;;;;;;;54.85;22.55;;;;;;;1.51;69.26;97840.48;1687915;84;25840;-86
2021/10/26 06:47:18;;;;;;;51.90;24.20;;;;;;;1.57;69.20;97841.22;1687979;84;28046;-84
2021/10/26 06:49:45;;;;;;;46.85;24.30;;;;;;;1.65;69.23;97845.34;1687755;84;25718;-83
2021/10/26 06:52:13;;;;;;;46.77;23.73;;;;;;;1.73;69.13;97854.76;1687846;84;25740;-84
2021/10/26 06:54:40;;;;;;;52.27;24.23;;;;;;;1.83;69.19;97854.72;1687823;84;26009;-83
2021/10/26 06:57:07;;;;;;;55.55;26.15;;;;;;;1.90;69.11;97850.51;1687913;84;25780;-84
2021/10/26 06:59:34;;;;;;;84.72;33.70;;;;;;;2.01;69.08;97852.98;1687845;84;27558;-85
2021/10/26 07:02:02;;;;;;;98.45;36.17;;;;;;;2.10;69.07;97844.59;1687738;84;25777;-85
2021/10/26 07:04:34;;;;;;;103.70;36.80;;;;;;;2.20;69.03;97845.38;1687908;84;25836;-84
2021/10/26 07:07:00;;;;;;;77.60;30.35;;;;;;;2.31;68.99;97854.49;1687872;83;26081;-84
2021/10/26 07:09:27;;;;;;;75.57;28.65;;;;;;;2.43;68.99;97849.30;1687898;84;25753;-85
2021/10/26 07:11:53;;;;;;;93.72;33.88;;;;;;;2.54;68.96;97846.92;1687905;84;28320;-85
2021/10/26 07:14:20;;;;;;;119.87;41.53;;;;;;;2.64;68.99;97845.55;1687720;84;26541;-85
2021/10/26 07:16:46;;;;;;;135.50;44.67;;;;;;;2.74;68.90;97843.15;1687865;84;25851;-84
2021/10/26 07:19:13;;;;;;;125.58;40.80;;;;;;;2.85;68.88;97843.41;1687974;84;26201;-85
2021/10/26 07:21:41;;;;;;;91.28;32.50;;;;;;;2.96;68.88;97841.84;1687728;84;26611;-84
2021/10/26 07:24:09;;;;;;;101.30;33.30;;;;;;;3.07;68.81;97838.94;1690681;83;27447;-84
2021/10/26 07:26:36;;;;;;;78.28;27.45;;;;;;;3.22;68.88;97846.75;1687800;84;25274;-85
2021/10/26 07:29:03;;;;;;;69.03;25.62;;;;;;;3.34;68.74;97841.16;1691169;83;25854;-84
2021/10/26 07:31:30;;;;;;;66.07;25.15;;;;;;;3.45;68.71;97842.23;1692048;83;26027;-85
2021/10/26 07:34:00;;;;;;;61.95;24.57;;;;;;;3.59;68.85;97842.52;1687285;83;25294;-86
2021/10/26 07:36:33;;;;;;;52.38;21.82;;;;;;;3.74;68.82;97834.77;1687222;83;27956;-86
2021/10/26 07:39:01;;;;;;;54.27;20.12;;;;;;;3.95;68.78;97841.05;1687453;83;25732;-85
2021/10/26 07:41:26;;;;;;;44.65;20.30;;;;;;;4.18;68.58;97833.30;1687295;83;26481;-85
2021/10/26 07:43:54;;;;;;;42.60;20.05;;;;;;;4.40;68.68;97829.20;1687032;83;26769;-87
2021/10/26 07:46:20;;;;;;;40.63;18.12;;;;;;;4.59;68.59;97827.56;1687318;83;25800;-85
2021/10/26 07:48:49;;;;;;;38.53;16.70;;;;;;;4.75;68.34;97818.75;1687039;83;27548;-86
2021/10/26 07:51:16;;;;;;;38.90;16.95;;;;;;;4.92;68.04;97825.31;1686956;83;26471;-85
2021/10/26 07:53:42;;;;;;;27.65;13.28;;;;;;;5.16;67.94;97829.84;1687060;83;25287;-85
2021/10/26 07:56:10;;;;;;;22.48;11.50;;;;;;;5.40;67.79;97819.13;1686994;83;25978;-85
2021/10/26 07:58:39;;;;;;;25.95;12.13;;;;;;;5.65;67.57;97831.14;1687175;83;25270;-84
2021/10/26 08:01:06;;;;;;;29.50;10.98;;;;;;;5.87;67.24;97827.73;1687206;83;28405;-85
2021/10/26 08:03:34;;;;;;;20.12;11.18;;;;;;;6.12;66.82;97829.88;1686948;83;25804;-84
2021/10/26 08:06:01;;;;;;;30.95;13.70;;;;;;;6.40;66.46;97822.23;1687072;83;25318;-85
2021/10/26 08:08:28;;;;;;;28.00;11.33;;;;;;;6.69;66.46;97821.05;1687176;83;25713;-85
2021/10/26 08:10:55;;;;;;;17.17;9.38;;;;;;;6.95;65.89;97822.06;1687258;83;25785;-84
2021/10/26 08:13:21;;;;;;;16.27;9.65;;;;;;;7.21;65.19;97825.73;1687152;83;27558;-85
2021/10/26 08:15:48;;;;;;;21.70;11.78;;;;;;;7.45;64.96;97824.19;1687180;83;25784;-84
2021/10/26 08:18:15;;;;;;;20.25;10.40;;;;;;;7.73;64.57;97821.71;1687231;83;25732;-86
2021/10/26 08:20:43;;;;;;;12.23;6.97;;;;;;;8.08;64.23;97819.36;1687130;83;26643;-84
2021/10/26 08:23:10;;;;;;;15.53;6.83;;;;;;;8.47;63.36;97812.33;1687251;83;25790;-84
2021/10/26 08:25:40;;;;;;;12.63;5.80;;;;;;;8.82;62.98;97807.46;1687134;83;28224;-86
2021/10/26 08:28:12;;;;;;;10.75;6.33;;;;;;;9.06;61.99;97804.11;1686833;83;25745;-85
2021/10/26 08:33:35;;;;;;;14.15;6.15;;;;;;;9.52;61.32;97806.70;1693439;83;26107;-85
2021/10/26 08:35:52;;;;;;;8.50;5.42;;;;;;;9.77;60.57;97807.11;1695555;82;25791;-85
2021/10/26 08:38:19;;;;;;;10.28;5.45;;;;;;;9.97;60.04;97808.58;1693016;83;27474;-85
2021/10/26 08:40:49;;;;;;;11.33;6.78;;;;;;;10.13;59.42;97808.27;1693148;84;26185;-84
2021/10/26 08:43:19;;;;;;;12.98;6.80;;;;;;;10.25;58.71;97809.41;1693194;83;25767;-88
2021/10/26 08:45:48;;;;;;;10.35;6.33;;;;;;;10.35;58.35;97800.44;1693140;83;26823;-85
2021/10/26 08:48:21;;;;;;;8.78;5.58;;;;;;;10.55;58.11;97797.81;1693185;83;25652;-85
2021/10/26 08:50:51;;;;;;;10.48;5.28;;;;;;;10.75;57.54;97800.05;1693122;83;28181;-87
2021/10/26 08:53:20;;;;;;;7.77;5.00;;;;;;;10.93;56.81;97785.99;1692808;83;26324;-89
2021/10/26 08:56:03;;;;;;;13.65;5.92;;;;;;;11.08;56.34;97796.11;1693106;83;25796;-86
2021/10/26 08:58:28;;;;;;;10.82;5.55;;;;;;;11.26;55.93;97790.61;1693784;83;27705;-87
2021/10/26 09:00:58;;;;;;;9.28;6.30;;;;;;;11.43;55.53;97790.53;1693212;83;25731;-86
2021/10/26 09:03:29;;;;;;;8.90;5.95;;;;;;;11.60;55.11;97792.28;1693121;83;27416;-86
2021/10/26 09:05:56;;;;;;;11.30;5.90;;;;;;;11.79;54.79;97786.08;1659324;86;25824;-87
2021/10/26 09:08:27;;;;;;;12.15;5.97;;;;;;;11.95;53.92;97786.17;1693112;83;25617;-85
2021/10/26 09:11:04;;;;;;;10.20;5.80;;;;;;;12.05;53.78;97786.05;1693084;83;26065;-85
2021/10/26 09:19:13;;;;;;;11.00;5.87;;;;;;;12.44;52.55;97787.78;1693150;83;26120;-88
2021/10/26 09:21:42;;;;;;;13.57;6.57;;;;;;;12.54;52.17;97788.71;1693372;83;25802;-85
2021/10/26 09:24:15;;;;;;;12.68;6.05;;;;;;;12.63;51.65;97786.89;1693114;83;26093;-86
2021/10/26 09:26:52;;;;;;;12.50;5.47;;;;;;;12.62;51.08;97782.52;1693272;83;25499;-86
2021/10/26 09:29:29;;;;;;;13.40;6.22;;;;;;;12.64;51.07;97780.95;1701554;82;27440;-87
2021/10/26 09:32:07;;;;;;;8.78;5.62;;;;;;;12.73;50.75;97781.53;1687081;83;26138;-86
2021/10/26 09:34:47;;;;;;;10.53;5.83;;;;;;;12.87;50.47;97773.65;1685954;84;25689;-85
2021/10/26 09:37:16;;;;;;;9.38;6.50;;;;;;;12.98;50.25;97768.37;1685913;84;25980;-87
2021/10/26 09:39:57;;;;;;;9.43;6.25;;;;;;;13.09;49.98;97766.01;1685834;84;25876;-87
2021/10/26 09:42:52;;;;;;;12.23;5.97;;;;;;;13.12;49.61;97763.70;1685916;84;27444;-87
2021/10/26 09:45:30;;;;;;;13.40;6.30;;;;;;;13.15;49.21;97763.30;1684456;84;25820;-86
2021/10/26 09:48:12;;;;;;;11.73;5.80;;;;;;;13.22;48.83;97758.66;1685860;85;25716;-86
2021/10/26 09:50:40;;;;;;;12.67;6.27;;;;;;;13.27;48.66;97753.42;1686220;85;26225;-85
2021/10/26 09:53:11;;;;;;;13.75;7.15;;;;;;;13.43;48.76;97758.80;1708225;82;25740;-86
2021/10/26 09:55:48;;;;;;;12.30;6.62;;;;;;;13.57;48.59;97756.81;1684979;84;27406;-86
2021/10/26 09:58:21;;;;;;;12.70;6.28;;;;;;;13.74;48.40;97761.99;1684982;84;25729;-86
2021/10/26 10:00:51;;;;;;;11.80;6.60;;;;;;;13.86;48.07;97756.14;1690619;83;25820;-86
2021/10/26 10:03:25;;;;;;;8.20;6.00;;;;;;;14.03;47.70;97750.41;1685935;84;26252;-86
2021/10/26 10:05:57;;;;;;;11.22;6.47;;;;;;;14.18;47.78;97750.58;1685962;84;25769;-85
2021/10/26 10:08:37;;;;;;;13.18;6.67;;;;;;;14.29;47.32;97738.44;1685945;84;27525;-86
2021/10/26 10:11:20;;;;;;;10.30;6.67;;;;;;;14.35;47.26;97737.55;1700268;83;25747;-86
2021/10/26 10:13:54;;;;;;;11.95;6.62;;;;;;;14.48;47.01;97739.30;1712385;82;25807;-85
2021/10/26 10:16:24;;;;;;;10.82;6.08;;;;;;;14.61;46.76;97739.11;1685894;85;26554;-85
2021/10/26 10:18:55;;;;;;;12.53;6.80;;;;;;;14.73;46.49;97736.48;1685918;84;25742;-86
2021/10/26 10:21:29;;;;;;;13.10;6.60;;;;;;;14.85;46.19;97733.27;1686095;84;26841;-86
2021/10/26 10:23:58;;;;;;;11.25;6.47;;;;;;;14.88;45.76;97729.24;1685753;83;25712;-85
2021/10/26 10:26:28;;;;;;;8.95;5.80;;;;;;;14.98;45.80;97723.55;1685821;84;25733;-86
2021/10/26 10:28:57;;;;;;;11.53;6.45;;;;;;;15.11;45.52;97721.16;1687240;83;26770;-86
2021/10/26 10:31:26;;;;;;;10.75;6.90;;;;;;;15.28;45.33;97715.36;1692833;83;25298;-85
2021/10/26 10:33:54;;;;;;;12.33;6.62;;;;;;;15.41;44.98;97711.06;1693057;83;27093;-88
2021/10/26 10:36:22;;;;;;;11.63;6.30;;;;;;;15.55;44.82;97701.36;1692931;83;25804;-86
2021/10/26 10:38:52;;;;;;;12.70;6.55;;;;;;;15.75;44.88;97701.83;1720670;81;25715;-86
2021/10/26 10:41:31;;;;;;;11.08;6.08;;;;;;;16.01;44.66;97699.98;1692912;83;26062;-85
2021/10/26 10:44:20;;;;;;;9.98;6.35;;;;;;;16.28;44.22;97700.83;1693057;83;25317;-85
2021/10/26 10:46:59;;;;;;;9.10;6.17;;;;;;;16.44;43.73;97692.70;1688776;84;28196;-85
2021/10/26 10:49:36;;;;;;;11.22;6.33;;;;;;;16.72;43.77;97682.39;1685229;83;25745;-87
2021/10/26 10:52:10;;;;;;;10.00;5.42;;;;;;;16.98;42.78;97684.23;1687145;83;25783;-85
2021/10/26 10:54:50;;;;;;;11.40;5.15;;;;;;;17.12;42.40;97676.03;1672560;83;25990;-86
2021/10/26 10:57:36;;;;;;;9.90;4.97;;;;;;;17.27;41.81;97673.54;1687189;83;25828;-87
2021/10/26 11:00:28;;;;;;;10.48;5.10;;;;;;;17.45;41.55;97671.11;1687012;83;27623;-86
2021/10/26 11:02:57;;;;;;;10.45;5.50;;;;;;;17.51;41.10;97666.84;1686894;83;25837;-86
2021/10/26 11:05:38;;;;;;;10.72;5.33;;;;;;;17.48;40.79;97663.27;1687039;83;25724;-87
2021/10/26 11:08:11;;;;;;;7.42;4.70;;;;;;;17.54;40.65;97663.63;1687147;83;25932;-86
2021/10/26 11:10:55;;;;;;;10.48;4.78;;;;;;;17.67;40.65;97665.75;1686710;83;25759;-86
2021/10/26 11:13:31;;;;;;;8.28;4.70;;;;;;;17.79;40.17;97667.84;1687091;83;28447;-87
2021/10/26 11:16:06;;;;;;;6.00;4.22;;;;;;;17.82;39.83;97661.34;1686253;83;25874;-85
2021/10/26 11:18:46;;;;;;;9.25;4.95;;;;;;;17.82;39.53;97663.25;1687107;83;26295;-86
2021/10/26 11:21:28;;;;;;;5.90;4.12;;;;;;;17.87;39.14;97655.14;1686156;83;25865;-86
2021/10/26 11:24:07;;;;;;;6.28;4.40;;;;;;;18.12;38.91;97651.36;1687254;83;26443;-87
2021/10/26 11:26:42;;;;;;;7.45;3.98;;;;;;;18.41;38.82;97652.55;1687186;83;27373;-86
2021/10/26 11:29:15;;;;;;;9.10;4.28;;;;;;;18.56;38.12;97641.80;1685284;83;26131;-88
2021/10/26 11:31:52;;;;;;;6.58;4.05;;;;;;;18.60;37.51;97635.56;1680330;84;26342;-87
2021/10/26 11:34:25;;;;;;;9.08;4.20;;;;;;;18.64;37.23;97633.16;1685614;84;26040;-88
2021/10/26 11:37:06;;;;;;;9.20;4.28;;;;;;;18.63;37.27;97635.60;1685873;84;25823;-86
2021/10/26 11:39:35;;;;;;;6.03;3.90;;;;;;;18.63;37.00;97626.86;1685775;84;27378;-87
2021/10/26 11:42:04;;;;;;;10.43;4.42;;;;;;;18.73;36.94;97624.77;1685956;85;25742;-85